Time;durP1;ratioP1;P1;durP2;ratioP2;P2;SDS_P1;SDS_P2;PMS_P1;PMS_P2;Temp;Humidity;BMP_temperature;BMP_pressure;BME280_temperature;BME280_humidity;BME280_pressure;Samples;Min_cycle;Max_cycle;Signal;HPM_P1;HPM_P2
2021/05/10 00:01:39;;;;;;;11.88;5.30;;;15.00;99.90;;;;;;4892967;29;20049;-94
2021/05/10 00:04:31;;;;;;;8.43;4.15;;;15.00;99.90;;;;;;4850483;29;20052;-93
2021/05/10 00:07:25;;;;;;;9.82;4.97;;;15.00;99.90;;;;;;4869138;29;20041;-93
2021/05/10 00:10:09;;;;;;;13.25;4.88;;;14.90;99.90;;;;;;4896736;29;20037;-94
2021/05/10 00:13:04;;;;;;;8.00;4.40;;;14.90;99.90;;;;;;4898952;29;20071;-90
2021/05/10 00:16:00;;;;;;;6.30;3.88;;;14.80;99.90;;;;;;4865392;29;20053;-92
2021/05/10 00:18:57;;;;;;;10.52;3.35;;;14.70;99.90;;;;;;4881334;29;20409;-92
2021/05/10 00:21:59;;;;;;;8.63;4.78;;;14.60;99.90;;;;;;4868331;29;20060;-93
2021/05/10 00:24:53;;;;;;;7.88;4.07;;;14.60;99.90;;;;;;4864068;29;20052;-92
2021/05/10 00:27:27;;;;;;;10.90;4.15;;;14.50;99.90;;;;;;4850285;29;20049;-92
2021/05/10 00:30:17;;;;;;;9.43;4.10;;;14.40;99.90;;;;;;4879201;29;20050;-92
2021/05/10 00:33:20;;;;;;;9.43;4.28;;;14.50;99.90;;;;;;4878251;29;20052;-94
2021/05/10 00:36:27;;;;;;;8.80;4.28;;;14.40;99.90;;;;;;4890890;29;20053;-93
2021/05/10 00:39:24;;;;;;;13.65;4.30;;;14.30;99.90;;;;;;4878053;29;20515;-92
2021/05/10 00:42:07;;;;;;;7.90;4.20;;;14.20;99.90;;;;;;4863216;29;20053;-92
2021/05/10 00:44:55;;;;;;;16.58;4.03;;;14.20;99.90;;;;;;4857808;29;20053;-93
2021/05/10 00:47:38;;;;;;;12.07;4.55;;;14.10;99.90;;;;;;4874003;29;20064;-90
2021/05/10 00:50:14;;;;;;;11.20;4.63;;;14.10;99.90;;;;;;4849692;29;20063;-93
2021/05/10 00:53:26;;;;;;;6.55;4.22;;;14.00;99.90;;;;;;4882285;29;20056;-92
2021/05/10 00:56:19;;;;;;;5.80;3.60;;;14.10;99.90;;;;;;4882167;29;20057;-94
2021/05/10 00:59:10;;;;;;;4.80;2.88;;;13.90;99.90;;;;;;4884131;29;20060;-93
2021/05/10 01:02:14;;;;;;;7.47;3.22;;;13.80;99.90;;;;;;4894976;29;20057;-91
2021/05/10 01:05:00;;;;;;;5.93;2.47;;;13.60;99.90;;;;;;4894145;29;20059;-92
2021/05/10 01:08:09;;;;;;;4.40;2.53;;;14.20;99.90;;;;;;4875681;29;20065;-92
2021/05/10 01:10:56;;;;;;;5.78;3.95;;;13.70;99.90;;;;;;4883879;29;20033;-91
2021/05/10 01:13:57;;;;;;;5.75;2.75;;;13.60;99.90;;;;;;4891042;29;20045;-91
2021/05/10 01:16:48;;;;;;;7.07;3.22;;;13.60;99.90;;;;;;4897207;29;20061;-93
2021/05/10 01:19:53;;;;;;;9.45;3.90;;;13.50;99.90;;;;;;4868565;29;20064;-91
2021/05/10 01:22:57;;;;;;;6.70;3.00;;;13.50;99.90;;;;;;4884392;29;20045;-91
2021/05/10 01:26:18;;;;;;;7.07;2.67;;;13.50;99.90;;;;;;4883152;29;20070;-92
2021/05/10 01:29:32;;;;;;;5.32;2.72;;;13.40;99.90;;;;;;4885149;29;20061;-92
2021/05/10 01:32:23;;;;;;;5.40;2.75;;;13.50;99.90;;;;;;4868788;29;20059;-92
2021/05/10 01:35:46;;;;;;;6.38;2.88;;;13.40;99.90;;;;;;4867189;29;20072;-92
2021/05/10 01:39:07;;;;;;;8.68;2.47;;;13.30;99.90;;;;;;4915555;29;20048;-90
2021/05/10 01:42:21;;;;;;;9.02;2.45;;;13.20;99.90;;;;;;4872800;29;20061;-91
2021/05/10 01:46:13;;;;;;;13.15;3.28;;;13.10;99.90;;;;;;4887496;29;20067;-93
2021/05/10 01:49:14;;;;;;;7.95;3.33;;;13.10;99.90;;;;;;4877465;29;20053;-92
2021/05/10 01:52:21;;;;;;;7.68;2.60;;;12.90;99.90;;;;;;4883206;29;20537;-93
2021/05/10 01:55:32;;;;;;;7.00;2.78;;;12.90;99.90;;;;;;4932355;23;20513;-92
2021/05/10 01:58:20;;;;;;;8.65;4.05;;;12.90;99.90;;;;;;4926462;29;20043;-93
2021/05/10 02:01:05;;;;;;;5.88;2.90;;;12.90;99.90;;;;;;4899427;29;20065;-93
2021/05/10 02:04:00;;;;;;;7.97;2.97;;;12.80;99.90;;;;;;4917048;29;20055;-92
2021/05/10 02:07:02;;;;;;;7.70;2.63;;;12.80;99.90;;;;;;4946182;23;20070;-91
2021/05/10 02:09:46;;;;;;;7.15;2.92;;;13.70;99.90;;;;;;4917164;29;20042;-93
2021/05/10 02:12:39;;;;;;;6.30;2.65;;;12.70;99.90;;;;;;4903281;29;20057;-93
2021/05/10 02:15:54;;;;;;;5.32;2.30;;;12.60;99.90;;;;;;4901275;29;20048;-92
2021/05/10 02:18:58;;;;;;;4.85;2.28;;;11.50;99.90;;;;;;4932946;29;20561;-91
2021/05/10 02:21:30;;;;;;;11.57;2.97;;;12.60;99.90;;;;;;4918599;29;20036;-91
2021/05/10 02:24:08;;;;;;;13.70;2.72;;;12.60;99.90;;;;;;4929564;29;20129;-92
2021/05/10 02:26:55;;;;;;;7.57;2.80;;;12.50;99.90;;;;;;4925132;29;20449;-92
2021/05/10 02:29:36;;;;;;;5.75;2.30;;;12.40;99.90;;;;;;4911281;29;20055;-92
2021/05/10 02:32:24;;;;;;;7.90;3.20;;;12.40;99.90;;;;;;4937843;29;20074;-92
2021/05/10 02:35:10;;;;;;;8.77;3.15;;;12.40;99.90;;;;;;4919195;29;20056;-93
2021/05/10 02:37:58;;;;;;;6.57;2.35;;;13.20;99.90;;;;;;4919923;29;20067;-93
2021/05/10 02:40:39;;;;;;;18.23;3.63;;;12.40;99.90;;;;;;4918406;29;20180;-92
2021/05/10 02:43:23;;;;;;;8.48;3.25;;;12.00;99.90;;;;;;4916393;29;20052;-92
2021/05/10 02:46:02;;;;;;;10.00;2.75;;;12.20;99.90;;;;;;4912753;29;20048;-92
2021/05/10 02:49:10;;;;;;;9.73;2.40;;;12.10;99.90;;;;;;4929882;29;20058;-91
2021/05/10 02:52:09;;;;;;;17.50;3.88;;;12.10;99.90;;;;;;4922984;29;20056;-92
2021/05/10 02:55:46;;;;;;;9.27;3.30;;;12.10;99.90;;;;;;4927170;29;20058;-92
2021/05/10 02:59:24;;;;;;;12.95;3.13;;;11.90;99.90;;;;;;4920826;29;20063;-92
2021/05/10 03:02:24;;;;;;;11.02;3.05;;;12.00;99.90;;;;;;4921676;29;20063;-92
2021/05/10 03:05:00;;;;;;;8.35;3.38;;;12.00;99.90;;;;;;4904872;29;20059;-92
2021/05/10 03:08:02;;;;;;;6.50;2.40;;;12.00;99.90;;;;;;4914133;29;20049;-92
2021/05/10 03:10:57;;;;;;;7.15;2.60;;;10.70;99.90;;;;;;4900474;29;20048;-91
2021/05/10 03:14:22;;;;;;;10.18;3.85;;;12.30;99.90;;;;;;4932541;29;20056;-92
2021/05/10 03:17:12;;;;;;;15.07;3.42;;;12.00;99.90;;;;;;4934561;29;20063;-91
2021/05/10 03:20:04;;;;;;;19.45;3.67;;;11.80;99.90;;;;;;4907075;29;20051;-91
2021/05/10 03:23:35;;;;;;;7.63;3.47;;;11.70;99.90;;;;;;4942354;23;20056;-91
2021/05/10 03:26:30;;;;;;;11.35;3.08;;;11.80;99.90;;;;;;4893483;29;20052;-91
2021/05/10 03:29:59;;;;;;;13.55;2.90;;;11.90;99.90;;;;;;4918067;29;20052;-91
2021/05/10 03:33:16;;;;;;;13.90;3.58;;;11.70;99.90;;;;;;4902542;29;20055;-93
2021/05/10 03:36:06;;;;;;;10.73;3.42;;;11.70;99.90;;;;;;4888883;29;20052;-92
2021/05/10 03:42:39;;;;;;;12.57;3.47;;;11.70;99.90;;;;;;4956233;29;20047;-92
2021/05/10 03:46:05;;;;;;;12.85;3.17;;;11.70;99.90;;;;;;4938184;29;20069;-92
2021/05/10 03:49:01;;;;;;;11.18;3.78;;;11.60;99.90;;;;;;4939727;29;20058;-93
2021/05/10 03:52:18;;;;;;;21.17;4.93;;;11.70;99.90;;;;;;4952726;29;20058;-91
2021/05/10 03:55:23;;;;;;;16.80;3.75;;;10.60;99.90;;;;;;4945736;29;20060;-92
2021/05/10 04:01:32;;;;;;;21.30;3.92;;;11.50;99.90;;;;;;4891859;29;20352;-92
2021/05/10 04:15:18;;;;;;;13.25;5.97;;;11.50;99.90;;;;;;4955173;29;20506;-90
2021/05/10 04:18:01;;;;;;;10.23;5.47;;;11.40;99.90;;;;;;4911461;29;20047;-93
2021/05/10 04:21:20;;;;;;;7.78;3.92;;;11.40;99.90;;;;;;4937581;29;20042;-92
2021/05/10 04:23:59;;;;;;;10.10;4.38;;;11.40;99.90;;;;;;4966094;29;20047;-92
2021/05/10 04:26:49;;;;;;;10.25;3.88;;;11.40;99.90;;;;;;4911336;29;20055;-92
2021/05/10 04:29:45;;;;;;;15.20;6.70;;;11.40;99.90;;;;;;4950452;29;20055;-92
2021/05/10 04:33:33;;;;;;;11.63;4.78;;;11.40;99.90;;;;;;4950637;29;20043;-92
2021/05/10 04:40:44;;;;;;;27.30;9.38;;;11.40;99.90;;;;;;4871379;29;20056;-91
2021/05/10 04:43:50;;;;;;;10.65;4.97;;;11.40;99.90;;;;;;4839440;29;20413;-90
2021/05/10 04:46:52;;;;;;;19.95;5.82;;;11.40;99.90;;;;;;4862458;29;20049;-91
2021/05/10 04:50:05;;;;;;;13.63;4.65;;;11.40;99.90;;;;;;4859305;29;20053;-92
2021/05/10 04:52:50;;;;;;;10.68;4.32;;;11.50;99.90;;;;;;4871689;29;20061;-91
2021/05/10 04:55:44;;;;;;;17.27;6.45;;;11.70;99.90;;;;;;4862074;29;20054;-93
2021/05/10 04:59:17;;;;;;;13.68;4.97;;;11.60;99.90;;;;;;4824712;29;20061;-93
2021/05/10 05:02:51;;;;;;;22.65;6.80;;;11.60;99.90;;;;;;4891425;29;20059;-91
2021/05/10 05:06:49;;;;;;;20.20;4.50;;;11.70;99.90;;;;;;4868713;29;20058;-92
2021/05/10 05:09:47;;;;;;;15.70;4.95;;;11.60;99.90;;;;;;4864610;29;20056;-93
2021/05/10 05:12:40;;;;;;;15.13;4.43;;;11.70;99.90;;;;;;4881712;29;20036;-92
2021/05/10 05:16:02;;;;;;;16.88;4.45;;;11.60;99.90;;;;;;4846017;29;20026;-94
2021/05/10 05:19:14;;;;;;;24.58;5.38;;;11.30;99.90;;;;;;4958561;23;20048;-92
2021/05/10 05:22:50;;;;;;;17.27;4.50;;;11.70;99.90;;;;;;4919902;29;20060;-93
2021/05/10 05:26:49;;;;;;;10.20;3.42;;;11.80;99.90;;;;;;4936942;29;20035;-93
2021/05/10 05:30:13;;;;;;;16.48;4.85;;;11.90;99.90;;;;;;4942930;29;20062;-93
2021/05/10 05:36:38;;;;;;;25.63;6.20;;;12.00;99.90;;;;;;5211042;23;20048;-91
2021/05/10 05:40:19;;;;;;;13.20;3.88;;;11.50;99.90;;;;;;4903751;29;20062;-92
2021/05/10 05:43:48;;;;;;;22.45;4.97;;;12.20;99.90;;;;;;5030662;23;20052;-92
2021/05/10 05:47:44;;;;;;;;;;;;;;;;;;;;;
2021/05/10 05:50:46;;;;;;;14.70;3.75;;;12.20;99.90;;;;;;4895112;29;20049;-91
2021/05/10 05:54:05;;;;;;;27.40;7.30;;;12.20;99.90;;;;;;4883030;29;20056;-92
2021/05/10 05:57:56;;;;;;;9.82;4.18;;;12.20;99.90;;;;;;4886196;29;20505;-92
2021/05/10 06:01:25;;;;;;;16.35;6.80;;;12.10;99.90;;;;;;4879505;29;20449;-91
2021/05/10 06:04:46;;;;;;;18.70;3.83;;;12.10;99.90;;;;;;4884943;29;20041;-91
2021/05/10 06:07:56;;;;;;;13.65;4.55;;;12.30;99.90;;;;;;4885503;29;20042;-92
2021/05/10 06:10:30;;;;;;;18.50;4.60;;;12.30;99.90;;;;;;4891784;29;20029;-91
2021/05/10 06:13:14;;;;;;;19.52;4.07;;;13.10;99.90;;;;;;4882959;29;20049;-90
2021/05/10 06:16:54;;;;;;;17.40;3.80;;;12.60;99.90;;;;;;4886879;29;20421;-90
2021/05/10 06:19:30;;;;;;;13.88;5.90;;;12.60;99.90;;;;;;4882768;29;20059;-90
2021/05/10 06:22:41;;;;;;;26.73;8.50;;;12.60;99.90;;;;;;4875513;29;20059;-87
2021/05/10 06:28:15;;;;;;;15.25;3.75;;;12.80;99.90;;;;;;4965329;29;20047;-90
2021/05/10 06:30:59;;;;;;;21.27;5.97;;;12.80;99.90;;;;;;4956047;29;20172;-91
2021/05/10 06:33:38;;;;;;;21.50;4.13;;;12.80;99.90;;;;;;4939627;29;20588;-91
2021/05/10 06:36:09;;;;;;;11.50;6.50;;;12.80;99.90;;;;;;4903005;29;20055;-91
2021/05/10 06:38:44;;;;;;;19.50;4.97;;;12.90;99.90;;;;;;4931454;29;20043;-93
2021/05/10 06:41:18;;;;;;;13.98;5.05;;;12.90;99.90;;;;;;4597263;28;10000507;-91
2021/05/10 06:43:48;;;;;;;15.48;5.15;;;12.90;99.90;;;;;;4981120;28;20051;-88
2021/05/10 06:46:18;;;;;;;14.27;3.25;;;13.00;99.90;;;;;;4959658;28;20091;-90
2021/05/10 06:49:21;;;;;;;24.55;3.50;;;13.00;99.90;;;;;;4957748;28;20077;-92
2021/05/10 06:52:03;;;;;;;20.70;3.75;;;13.10;99.90;;;;;;4945207;28;20047;-91
2021/05/10 06:54:42;;;;;;;10.95;3.42;;;13.20;99.90;;;;;;4928640;28;20039;-92
2021/05/10 06:57:11;;;;;;;18.27;4.18;;;12.50;99.90;;;;;;4946639;28;20432;-92
2021/05/10 06:59:42;;;;;;;12.85;3.45;;;13.20;99.90;;;;;;4964956;28;20046;-89
2021/05/10 07:02:12;;;;;;;14.32;4.07;;;13.20;99.90;;;;;;4963645;28;20059;-88
2021/05/10 07:04:41;;;;;;;17.63;5.57;;;13.20;99.90;;;;;;4950058;28;20047;-90
2021/05/10 07:07:14;;;;;;;17.90;4.90;;;13.20;99.90;;;;;;4961454;28;20043;-90
2021/05/10 07:09:51;;;;;;;26.85;4.93;;;13.30;99.90;;;;;;4971811;28;20418;-91
2021/05/10 07:12:23;;;;;;;18.85;3.75;;;13.30;99.90;;;;;;4946258;28;20051;-89
2021/05/10 07:14:53;;;;;;;11.40;4.17;;;13.40;99.90;;;;;;4963066;28;20057;-90
2021/05/10 07:17:32;;;;;;;13.55;3.58;;;13.60;99.90;;;;;;4956167;28;20309;-88
2021/05/10 07:20:06;;;;;;;23.05;4.05;;;13.50;99.90;;;;;;4928596;28;20050;-89
2021/05/10 07:22:43;;;;;;;11.23;3.58;;;13.50;99.90;;;;;;4953910;28;20051;-88
2021/05/10 07:25:25;;;;;;;12.23;3.20;;;13.50;99.90;;;;;;4927469;28;20394;-90
2021/05/10 07:27:58;;;;;;;15.90;4.20;;;13.60;99.90;;;;;;4937123;28;20667;-90
2021/05/10 07:30:33;;;;;;;20.77;5.18;;;14.00;99.90;;;;;;4914469;29;20048;-88
2021/05/10 07:33:08;;;;;;;16.83;4.32;;;13.60;99.90;;;;;;4943539;28;20051;-91
2021/05/10 07:35:39;;;;;;;18.88;4.70;;;13.50;99.90;;;;;;4953643;29;20058;-91
2021/05/10 07:38:09;;;;;;;19.08;4.68;;;13.60;99.90;;;;;;4940479;28;20058;-91
2021/05/10 07:40:45;;;;;;;16.35;3.53;;;13.60;99.90;;;;;;4960137;28;20428;-91
2021/05/10 07:43:45;;;;;;;22.40;4.38;;;13.70;99.90;;;;;;4952441;28;20051;-89
2021/05/10 07:46:42;;;;;;;8.68;2.83;;;13.90;99.90;;;;;;4953265;29;20039;-91
2021/05/10 07:49:13;;;;;;;14.63;4.00;;;13.80;99.90;;;;;;4942565;28;20577;-89
2021/05/10 07:51:44;;;;;;;19.73;4.78;;;13.90;99.90;;;;;;4940006;28;20537;-92
2021/05/10 07:54:20;;;;;;;9.80;3.08;;;14.00;99.90;;;;;;4956489;28;20047;-89
2021/05/10 07:56:56;;;;;;;8.00;3.30;;;14.00;99.90;;;;;;4952795;28;20077;-90
2021/05/10 07:59:34;;;;;;;22.80;3.40;;;14.20;99.90;;;;;;4925965;28;20047;-91
2021/05/10 08:02:19;;;;;;;11.57;3.03;;;13.00;99.90;;;;;;4930982;28;20051;-90
2021/05/10 08:04:52;;;;;;;11.07;3.38;;;14.20;99.90;;;;;;4931747;28;20391;-89
2021/05/10 08:07:31;;;;;;;15.40;3.97;;;14.60;99.90;;;;;;4969955;28;20046;-87
2021/05/10 08:10:12;;;;;;;18.42;5.55;;;14.60;99.90;;;;;;4945639;28;20055;-90
2021/05/10 08:12:49;;;;;;;13.85;4.85;;;14.60;99.90;;;;;;4959448;28;20231;-88
2021/05/10 08:15:21;;;;;;;14.27;2.90;;;14.60;99.90;;;;;;4945705;28;20062;-89
2021/05/10 08:17:50;;;;;;;16.33;3.30;;;14.60;99.90;;;;;;4925731;28;20039;-90
2021/05/10 08:20:39;;;;;;;13.45;3.42;;;14.70;99.90;;;;;;4973407;28;20054;-90
2021/05/10 08:23:09;;;;;;;25.17;4.73;;;14.80;99.90;;;;;;4960215;28;20058;-91
2021/05/10 08:25:46;;;;;;;13.63;3.20;;;14.90;99.90;;;;;;4974311;28;20067;-89
2021/05/10 08:28:16;;;;;;;12.35;3.55;;;15.10;99.90;;;;;;4939622;28;20051;-86
2021/05/10 08:30:48;;;;;;;15.40;3.08;;;15.30;99.90;;;;;;4970689;28;20058;-90
2021/05/10 08:33:17;;;;;;;;;;;15.40;99.90;;;;;;4961707;28;20054;-90
2021/05/10 08:35:50;;;;;;;21.50;3.92;;;15.50;99.90;;;;;;4957163;28;19922;-86
2021/05/10 08:38:40;;;;;;;11.02;2.53;;;15.60;99.90;;;;;;4929779;28;20045;-89
2021/05/10 08:41:10;;;;;;;12.07;2.85;;;16.40;99.90;;;;;;4943306;28;20050;-91
2021/05/10 08:43:39;;;;;;;12.70;3.30;;;15.60;99.90;;;;;;4945549;28;20410;-89
2021/05/10 08:46:08;;;;;;;11.82;2.28;;;15.70;99.90;;;;;;4946794;28;20047;-89
2021/05/10 08:48:42;;;;;;;14.50;4.07;;;15.50;99.90;;;;;;4972105;28;20055;-89
2021/05/10 08:51:16;;;;;;;12.82;2.75;;;15.50;99.90;;;;;;4956320;28;20058;-88
2021/05/10 08:53:48;;;;;;;8.70;3.20;;;15.50;99.90;;;;;;4957370;28;20057;-88
2021/05/10 08:56:15;;;;;;;9.83;3.17;;;15.70;99.90;;;;;;4970053;28;20058;-89
2021/05/10 08:58:48;;;;;;;8.77;3.17;;;15.60;99.90;;;;;;4961468;28;20053;-88
2021/05/10 09:01:23;;;;;;;12.30;3.17;;;15.60;99.90;;;;;;4940361;28;20061;-89
2021/05/10 09:03:51;;;;;;;14.82;3.70;;;15.70;99.90;;;;;;4951312;28;20042;-89
2021/05/10 09:06:48;;;;;;;12.85;2.92;;;15.80;99.90;;;;;;4945253;28;20058;-89
2021/05/10 09:09:19;;;;;;;15.50;3.28;;;15.90;99.90;;;;;;4944277;28;20430;-90
2021/05/10 09:11:56;;;;;;;17.15;2.95;;;16.00;99.90;;;;;;4962373;29;20051;-91
2021/05/10 09:14:35;;;;;;;15.35;2.75;;;16.00;99.90;;;;;;4971674;28;20077;-90
2021/05/10 09:17:09;;;;;;;13.05;3.38;;;15.90;99.90;;;;;;4951410;28;20414;-90
2021/05/10 09:19:56;;;;;;;15.40;3.22;;;15.80;99.90;;;;;;4957278;28;20051;-90
2021/05/10 09:22:45;;;;;;;14.40;3.63;;;15.70;99.90;;;;;;4950812;28;20050;-89
2021/05/10 09:25:20;;;;;;;10.23;2.42;;;15.70;99.90;;;;;;4963929;28;20057;-89
2021/05/10 09:28:15;;;;;;;7.55;2.08;;;15.60;99.90;;;;;;4930804;28;20043;-90
2021/05/10 09:30:47;;;;;;;14.98;3.55;;;15.70;99.90;;;;;;4941413;28;20051;-90
2021/05/10 09:33:21;;;;;;;9.35;2.65;;;15.70;99.90;;;;;;4961324;28;20054;-90
2021/05/10 09:35:56;;;;;;;11.27;2.72;;;15.70;99.90;;;;;;4942485;28;20047;-91
2021/05/10 09:38:28;;;;;;;12.75;4.70;;;15.80;99.90;;;;;;4963268;28;20057;-89
2021/05/10 09:41:07;;;;;;;13.10;2.88;;;15.90;99.90;;;;;;4920305;23;20051;-90
2021/05/10 09:43:38;;;;;;;15.73;2.90;;;16.00;99.90;;;;;;4919644;29;20059;-89
2021/05/10 09:46:07;;;;;;;15.25;2.97;;;16.00;99.90;;;;;;4921932;29;20059;-90
2021/05/10 09:48:45;;;;;;;10.65;2.67;;;16.00;99.90;;;;;;4922353;29;20055;-89
2021/05/10 09:51:21;;;;;;;13.85;3.67;;;16.00;99.90;;;;;;4921695;29;20047;-90
2021/05/10 09:53:56;;;;;;;4.68;1.25;;;16.00;99.90;;;;;;4900081;29;20052;-89
2021/05/10 09:56:30;;;;;;;8.60;3.17;;;16.00;99.90;;;;;;4907113;29;20060;-91
2021/05/10 09:59:03;;;;;;;12.40;3.97;;;15.10;99.90;;;;;;4902187;29;20051;-91
2021/05/10 10:01:48;;;;;;;14.43;2.35;;;16.00;99.90;;;;;;4919927;29;20063;-91
2021/05/10 10:04:49;;;;;;;14.68;3.08;;;15.50;99.90;;;;;;4892366;29;20055;-88
2021/05/10 10:07:26;;;;;;;9.50;3.75;;;16.30;99.90;;;;;;4930182;29;20064;-91
2021/05/10 10:10:16;;;;;;;14.18;3.10;;;16.40;99.90;;;;;;4909915;29;20048;-92
2021/05/10 10:12:48;;;;;;;10.57;2.70;;;16.60;99.90;;;;;;4928306;29;20063;-91
2021/05/10 10:15:29;;;;;;;7.53;2.40;;;16.40;99.90;;;;;;4914299;29;20060;-91
2021/05/10 10:18:00;;;;;;;10.23;2.83;;;16.20;99.90;;;;;;4928981;29;20062;-89
2021/05/10 10:20:33;;;;;;;7.55;2.45;;;16.10;99.90;;;;;;4924992;29;20054;-90
2021/05/10 10:23:07;;;;;;;9.35;2.55;;;16.00;99.90;;;;;;4917300;29;20048;-89
2021/05/10 10:25:46;;;;;;;10.05;2.85;;;16.00;99.90;;;;;;4924631;29;20059;-91
2021/05/10 10:28:21;;;;;;;7.53;2.15;;;16.00;99.90;;;;;;4919310;29;20052;-91
2021/05/10 10:31:16;;;;;;;9.90;1.98;;;15.90;99.90;;;;;;4917770;29;20059;-90
2021/05/10 10:34:15;;;;;;;6.32;2.40;;;15.90;99.90;;;;;;4903595;29;20052;-89
2021/05/10 10:37:00;;;;;;;14.88;2.70;;;15.80;99.90;;;;;;4902855;29;20052;-89
2021/05/10 10:39:52;;;;;;;11.07;2.53;;;15.70;99.90;;;;;;4905746;29;20056;-90
2021/05/10 10:42:34;;;;;;;11.68;2.38;;;15.70;99.90;;;;;;4887162;29;20107;-89
2021/05/10 10:45:11;;;;;;;10.45;3.00;;;14.40;99.90;;;;;;4885849;29;20063;-89
2021/05/10 10:47:55;;;;;;;7.32;2.33;;;15.50;99.90;;;;;;4898915;29;20045;-90
2021/05/10 10:51:02;;;;;;;10.88;4.70;;;15.40;99.90;;;;;;4900019;29;20052;-90
2021/05/10 10:53:54;;;;;;;6.57;2.47;;;15.60;99.90;;;;;;4903375;29;20044;-89
2021/05/10 10:56:54;;;;;;;10.32;3.17;;;15.60;99.90;;;;;;4905114;29;20064;-88
2021/05/10 10:59:53;;;;;;;9.03;2.40;;;15.70;99.90;;;;;;4890421;29;20056;-90
2021/05/10 11:02:55;;;;;;;11.50;2.45;;;15.80;99.90;;;;;;4902796;29;20061;-89
2021/05/10 11:05:29;;;;;;;10.50;2.67;;;15.80;99.90;;;;;;4907852;29;20060;-90
2021/05/10 11:08:14;;;;;;;12.57;3.15;;;16.00;99.90;;;;;;4882975;29;20048;-88
2021/05/10 11:10:54;;;;;;;8.30;2.88;;;16.30;99.90;;;;;;4897039;29;20051;-87
2021/05/10 11:13:28;;;;;;;9.30;2.28;;;16.60;99.90;;;;;;4904938;29;20052;-86
2021/05/10 11:16:13;;;;;;;9.18;1.70;;;16.70;99.90;;;;;;4890189;29;20045;-89
2021/05/10 11:18:53;;;;;;;11.73;3.55;;;16.10;99.90;;;;;;4889005;29;20059;-87
2021/05/10 11:21:24;;;;;;;11.95;2.60;;;16.90;99.90;;;;;;4898744;29;20615;-89
2021/05/10 11:23:53;;;;;;;8.57;2.00;;;17.00;99.90;;;;;;4902356;29;20049;-86
2021/05/10 11:26:51;;;;;;;6.05;1.60;;;16.40;99.90;;;;;;4897175;29;20631;-88
2021/05/10 11:29:26;;;;;;;6.30;2.80;;;17.20;99.90;;;;;;4903766;29;20095;-88
2021/05/10 11:31:55;;;;;;;7.97;2.28;;;17.10;99.90;;;;;;4890248;29;20063;-89
2021/05/10 11:34:37;;;;;;;4.00;1.75;;;17.20;99.90;;;;;;4885294;29;20072;-92
2021/05/10 11:37:07;;;;;;;10.32;1.67;;;17.50;99.90;;;;;;4892217;29;20532;-87
2021/05/10 11:39:40;;;;;;;6.32;1.58;;;17.60;99.90;;;;;;4894036;29;20404;-86
2021/05/10 11:42:10;;;;;;;5.45;1.77;;;17.80;99.90;;;;;;4893927;29;20056;-88
2021/05/10 11:44:43;;;;;;;6.60;1.67;;;17.80;99.90;;;;;;4874624;29;20053;-88
2021/05/10 11:47:31;;;;;;;14.45;2.88;;;17.70;99.90;;;;;;4895148;29;20059;-89
2021/05/10 11:50:05;;;;;;;11.40;3.55;;;17.60;99.90;;;;;;4891190;29;20220;-87
2021/05/10 11:52:34;;;;;;;8.00;2.22;;;17.70;99.90;;;;;;4876716;29;20064;-88
2021/05/10 11:55:03;;;;;;;6.80;2.40;;;17.70;99.90;;;;;;4878727;29;20061;-87
2021/05/10 11:57:34;;;;;;;11.55;3.30;;;17.70;99.90;;;;;;4891654;29;20059;-90
2021/05/10 12:00:13;;;;;;;11.95;3.13;;;17.50;99.90;;;;;;4890704;29;20052;-88
2021/05/10 12:02:48;;;;;;;6.72;2.10;;;17.60;99.90;;;;;;4904967;29;20068;-87
2021/05/10 12:05:17;;;;;;;14.68;3.08;;;17.80;99.90;;;;;;4900608;29;20056;-91
2021/05/10 12:07:49;;;;;;;12.70;2.55;;;16.40;99.90;;;;;;4898090;29;20060;-88
2021/05/10 12:10:17;;;;;;;;;;;17.90;99.90;;;;;;4895603;29;20087;-91
2021/05/10 12:12:49;;;;;;;9.75;2.78;;;18.20;99.90;;;;;;4897101;29;19938;-87
2021/05/10 12:15:28;;;;;;;7.90;2.28;;;18.10;99.90;;;;;;4893236;29;20060;-86
2021/05/10 12:18:04;;;;;;;6.75;4.43;;;18.10;99.60;;;;;;4890041;29;20060;-88
2021/05/10 12:20:33;;;;;;;2.05;1.13;;;18.10;99.20;;;;;;4905654;29;20051;-88
2021/05/10 12:23:03;;;;;;;10.52;3.03;;;18.00;99.10;;;;;;4901123;29;20056;-88
2021/05/10 12:25:37;;;;;;;11.68;2.95;;;17.90;99.70;;;;;;4908726;29;20055;-88
2021/05/10 12:28:16;;;;;;;7.28;2.55;;;17.80;99.90;;;;;;4903950;29;20056;-87
2021/05/10 12:30:44;;;;;;;7.55;2.63;;;17.90;99.80;;;;;;4887931;29;20056;-87
2021/05/10 12:33:17;;;;;;;9.40;2.92;;;18.10;99.20;;;;;;4866994;29;20057;-89
2021/05/10 12:35:46;;;;;;;5.75;2.50;;;18.10;99.20;;;;;;4891223;29;20048;-87
2021/05/10 12:38:30;;;;;;;7.18;2.22;;;18.10;98.70;;;;;;4888053;29;20488;-87
2021/05/10 12:41:02;;;;;;;6.07;2.15;;;18.00;98.20;;;;;;4891079;29;20053;-92
2021/05/10 12:43:33;;;;;;;17.30;3.10;;;17.80;98.70;;;;;;4895056;29;20055;-89
2021/05/10 12:46:06;;;;;;;12.20;2.88;;;17.80;99.40;;;;;;4894520;29;20057;-86
2021/05/10 12:48:42;;;;;;;13.80;3.35;;;17.80;99.10;;;;;;4898688;29;20056;-87
2021/05/10 12:51:23;;;;;;;8.30;2.10;;;17.70;98.70;;;;;;4896065;29;20427;-85
2021/05/10 12:54:02;;;;;;;12.18;2.58;;;17.70;98.90;;;;;;4883364;29;20044;-86
2021/05/10 12:56:41;;;;;;;7.05;1.67;;;17.30;98.80;;;;;;4884879;29;20049;-87
2021/05/10 12:59:10;;;;;;;12.13;3.75;;;17.50;98.90;;;;;;4896658;29;20044;-87
2021/05/10 13:01:38;;;;;;;16.50;2.53;;;17.30;99.10;;;;;;4890363;29;20084;-88
2021/05/10 13:04:10;;;;;;;9.70;2.35;;;17.20;99.30;;;;;;4895217;29;20049;-88
2021/05/10 13:06:42;;;;;;;13.00;3.42;;;17.00;99.90;;;;;;4873472;29;20389;-89
2021/05/10 13:09:24;;;;;;;7.18;2.25;;;17.10;99.90;;;;;;4891422;29;20060;-88
2021/05/10 13:11:59;;;;;;;15.20;3.88;;;17.20;99.20;;;;;;4889546;29;20044;-87
2021/05/10 13:14:52;;;;;;;12.82;2.38;;;17.30;99.50;;;;;;4890554;29;20052;-88
2021/05/10 13:17:26;;;;;;;13.10;1.75;;;17.60;98.90;;;;;;4891132;29;20051;-89
2021/05/10 13:31:39;;;;;;;12.38;1.98;;;17.40;99.90;;;;;;4887351;29;20048;-93
2021/05/10 13:36:50;;;;;;;8.80;2.53;;;16.70;99.90;;;;;;4904581;29;20045;-90
2021/05/10 13:42:15;;;;;;;6.90;1.65;;;16.70;99.90;;;;;;4857004;29;20281;-90
2021/05/10 13:44:48;;;;;;;16.52;2.75;;;16.90;99.90;;;;;;4849449;29;20058;-90
2021/05/10 13:47:20;;;;;;;11.48;2.33;;;17.10;99.90;;;;;;4864015;29;20050;-90
2021/05/10 13:49:48;;;;;;;13.70;3.03;;;17.40;99.90;;;;;;4851199;29;20058;-90
2021/05/10 13:52:16;;;;;;;11.68;2.05;;;17.70;99.20;;;;;;4855843;29;20046;-91
2021/05/10 13:54:45;;;;;;;8.98;3.38;;;18.00;98.80;;;;;;4868244;29;20076;-92
2021/05/10 13:57:16;;;;;;;11.25;3.53;;;18.50;97.20;;;;;;4853053;29;20054;-91
2021/05/10 13:59:46;;;;;;;8.77;2.05;;;18.80;97.10;;;;;;4860793;29;20131;-91
2021/05/10 14:02:15;;;;;;;9.52;3.15;;;19.10;96.00;;;;;;4843192;29;20056;-91
2021/05/10 14:05:11;;;;;;;14.98;2.70;;;19.40;94.70;;;;;;4854917;29;20058;-91
2021/05/10 14:07:40;;;;;;;6.97;1.77;;;19.40;92.90;;;;;;4850604;29;20049;-90
2021/05/10 14:10:12;;;;;;;10.93;2.83;;;19.20;93.10;;;;;;4855257;29;20068;-91
2021/05/10 14:12:42;;;;;;;11.30;2.13;;;19.30;92.90;;;;;;4841575;29;20555;-89
2021/05/10 14:15:14;;;;;;;16.67;2.22;;;19.60;91.50;;;;;;4851847;29;20054;-90
2021/05/10 14:17:43;;;;;;;8.07;1.67;;;19.80;91.40;;;;;;4868685;29;20069;-89
2021/05/10 14:20:27;;;;;;;11.80;2.15;;;19.80;90.30;;;;;;4853595;29;20054;-90
2021/05/10 14:23:00;;;;;;;7.40;2.70;;;19.70;89.50;;;;;;4851252;29;20069;-89
2021/05/10 14:25:31;;;;;;;5.70;1.70;;;19.30;89.00;;;;;;4855449;29;20053;-91
2021/05/10 14:28:03;;;;;;;5.57;1.52;;;18.80;90.90;;;;;;4867153;29;20418;-89
2021/05/10 14:30:47;;;;;;;8.68;1.75;;;19.00;91.00;;;;;;4851267;29;20421;-89
2021/05/10 14:33:46;;;;;;;13.32;2.53;;;19.00;90.50;;;;;;4868342;29;20489;-91
2021/05/10 14:36:22;;;;;;;14.55;2.70;;;19.00;90.20;;;;;;4852966;29;20053;-92
2021/05/10 14:38:52;;;;;;;8.57;1.92;;;19.20;90.50;;;;;;4869528;29;20826;-90
2021/05/10 14:41:26;;;;;;;10.05;2.60;;;19.00;90.20;;;;;;4853645;29;20049;-92
2021/05/10 14:44:04;;;;;;;5.10;2.08;;;18.70;90.70;;;;;;4855402;29;20053;-91
2021/05/10 14:46:39;;;;;;;7.65;2.28;;;18.90;91.10;;;;;;4871885;29;20062;-89
2021/05/10 14:49:10;;;;;;;9.95;2.13;;;19.30;90.20;;;;;;4877963;29;20052;-91
2021/05/10 14:51:43;;;;;;;5.82;2.65;;;19.70;90.10;;;;;;4872295;29;20066;-90
2021/05/10 14:54:16;;;;;;;;;;;19.80;85.90;;;;;;4887905;29;20053;-89
2021/05/10 15:00:41;;;;;;;9.55;2.92;;;19.40;88.10;;;;;;4878950;29;20033;-92
2021/05/10 15:03:15;;;;;;;5.68;2.25;;;19.20;88.40;;;;;;4851930;29;20054;-88
2021/05/10 15:06:14;;;;;;;8.82;2.33;;;19.50;88.70;;;;;;4874885;29;20055;-89
2021/05/10 15:09:08;;;;;;;10.70;2.50;;;19.60;87.30;;;;;;4884560;29;20577;-89
2021/05/10 15:11:42;;;;;;;14.55;2.17;;;19.30;86.00;;;;;;4872324;29;20058;-90
2021/05/10 15:14:42;;;;;;;10.95;1.80;;;18.80;87.60;;;;;;4855481;29;20057;-91